Terminal Aerodrome Forecast
Issued by NWS Albany, NY

Home | Current Version | Previous Version | Text Only | Print | Product List | Glossary On
Versions: 1 2 3 4 5 6 7 8 9 10 11 12 13 14 15 16
000
FTUS41 KALY 291742
TAFALB
TAF
KALB 291742Z 2918/3018 01007KT P6SM FEW025 SCT050 SCT130
     FM292000 35006KT P6SM VCSH SCT050 BKN120
     FM300400 36004KT P6SM FEW250
     FM301500 36003KT P6SM SCT100 BKN200=

USA.gov is the U.S. government's official web portal to all federal, state and local government web resources and services.